Time;durP1;ratioP1;P1;durP2;ratioP2;P2;SDS_P1;SDS_P2;PMS_P1;PMS_P2;Temp;Humidity;BMP_temperature;BMP_pressure;BME280_temperature;BME280_humidity;BME280_pressure;Samples;Min_cycle;Max_cycle;Signal;HPM_P1;HPM_P2
2021/08/18 00:02:08;;;;;;;18.45;12.93;;;;;;;15.34;86.08;100217.97;10339970;28;20133;-59
2021/08/18 00:07:10;;;;;;;19.00;13.25;;;;;;;15.34;86.41;100226.03;10334138;28;20563;-59
2021/08/18 00:12:11;;;;;;;18.23;13.35;;;;;;;15.37;86.11;100223.88;10336131;28;20509;-60
2021/08/18 00:17:13;;;;;;;18.80;14.05;;;;;;;15.44;86.00;100218.72;10328011;28;20138;-59
2021/08/18 00:22:14;;;;;;;18.48;12.75;;;;;;;15.38;86.16;100219.34;10333606;28;20113;-58
2021/08/18 00:27:15;;;;;;;15.90;12.52;;;;;;;15.29;86.99;100231.03;10333133;28;20073;-58
2021/08/18 00:32:17;;;;;;;18.27;13.05;;;;;;;15.40;86.35;100217.34;10331471;28;20117;-59
2021/08/18 00:37:18;;;;;;;16.27;12.25;;;;;;;15.40;85.88;100198.56;10339923;28;20069;-58
2021/08/18 00:42:20;;;;;;;16.20;11.35;;;;;;;15.53;85.24;100217.78;10330289;28;20427;-59
2021/08/18 00:47:21;;;;;;;16.15;11.57;;;;;;;15.42;86.41;100207.31;10330244;28;20504;-60
2021/08/18 00:52:23;;;;;;;19.73;11.48;;;;;;;15.48;86.12;100212.06;10332462;28;20058;-60
2021/08/18 00:57:24;;;;;;;15.73;11.18;;;;;;;15.63;85.25;100206.97;10332564;28;20208;-58
2021/08/18 01:02:26;;;;;;;15.75;9.60;;;;;;;15.67;85.21;100213.72;10331967;28;20122;-58
2021/08/18 01:07:28;;;;;;;11.38;9.75;;;;;;;15.63;85.19;100206.16;10329332;28;20093;-59
2021/08/18 01:12:29;;;;;;;13.93;10.52;;;;;;;15.58;85.13;100198.53;10329007;28;20065;-60
2021/08/18 01:17:38;;;;;;;10.40;7.85;;;;;;;15.56;85.02;100206.75;10329776;28;20412;-64
2021/08/18 01:22:40;;;;;;;11.00;8.30;;;;;;;15.58;85.45;100203.91;10328533;28;20088;-59
2021/08/18 01:27:48;;;;;;;11.10;7.72;;;;;;;15.54;85.27;100202.56;10324240;28;20137;-61
2021/08/18 01:32:52;;;;;;;9.15;7.35;;;;;;;15.54;84.92;100208.75;10332916;28;20199;-61
2021/08/18 01:37:55;;;;;;;9.90;7.28;;;;;;;15.59;84.85;100204.75;10328435;28;20054;-60
2021/08/18 01:42:56;;;;;;;6.78;6.00;;;;;;;15.56;84.64;100198.69;10347064;28;20158;-59
2021/08/18 01:48:05;;;;;;;7.75;6.22;;;;;;;15.62;84.48;100196.41;10331589;28;20046;-59
2021/08/18 01:53:07;;;;;;;8.50;5.65;;;;;;;15.50;84.67;100185.09;10327194;28;20050;-60
2021/08/18 01:58:08;;;;;;;6.88;4.72;;;;;;;15.42;84.76;100188.56;10327720;28;20078;-60
2021/08/18 02:03:10;;;;;;;5.97;4.78;;;;;;;15.56;83.96;100184.44;10328313;28;20074;-59
2021/08/18 02:08:11;;;;;;;5.93;4.10;;;;;;;15.60;84.09;100195.69;10329324;28;20184;-59
2021/08/18 02:13:13;;;;;;;4.82;3.70;;;;;;;15.68;83.73;100196.59;10324863;28;20133;-59
2021/08/18 02:18:15;;;;;;;5.00;4.10;;;;;;;15.74;83.41;100203.19;10326378;28;20139;-59
2021/08/18 02:23:17;;;;;;;5.20;3.80;;;;;;;15.88;82.57;100197.25;10330981;28;20089;-60
2021/08/18 02:28:18;;;;;;;3.95;3.50;;;;;;;15.85;82.57;100205.63;10330718;28;20077;-59
2021/08/18 02:33:24;;;;;;;3.72;3.30;;;;;;;15.85;81.97;100210.16;10329827;28;20137;-58
2021/08/18 02:38:26;;;;;;;4.10;3.20;;;;;;;15.89;82.25;100201.63;10329634;28;20111;-60
2021/08/18 02:43:27;;;;;;;3.60;2.60;;;;;;;15.97;81.77;100203.50;10325999;28;20580;-59
2021/08/18 02:48:29;;;;;;;4.38;3.50;;;;;;;15.94;82.41;100197.63;10333406;28;20569;-59
2021/08/18 02:53:30;;;;;;;5.15;3.00;;;;;;;15.96;81.55;100211.72;10327998;28;20116;-59
2021/08/18 02:58:32;;;;;;;3.45;2.95;;;;;;;15.82;82.17;100211.31;10327778;28;20057;-60
2021/08/18 03:03:34;;;;;;;3.33;2.60;;;;;;;15.78;82.38;100201.03;10333640;28;20096;-58
2021/08/18 03:08:35;;;;;;;4.68;3.45;;;;;;;15.85;81.80;100200.28;10342127;28;20112;-59
2021/08/18 03:13:37;;;;;;;4.70;2.50;;;;;;;15.70;82.32;100196.44;10330011;28;20064;-58
2021/08/18 03:18:38;;;;;;;3.30;2.33;;;;;;;15.72;82.49;100199.81;10330062;28;20050;-59
2021/08/18 03:23:40;;;;;;;4.28;2.78;;;;;;;15.77;82.20;100200.19;10328862;28;20042;-60
2021/08/18 03:28:41;;;;;;;5.30;2.80;;;;;;;15.92;81.94;100203.16;10326935;28;20120;-59
2021/08/18 03:33:43;;;;;;;5.03;2.90;;;;;;;15.64;82.94;100203.31;10328129;28;20112;-60
2021/08/18 03:38:44;;;;;;;2.72;2.53;;;;;;;15.58;83.44;100198.53;10331288;28;20104;-59
2021/08/18 03:43:46;;;;;;;4.85;3.00;;;;;;;15.66;83.70;100205.81;10329065;28;20100;-59
2021/08/18 03:48:48;;;;;;;3.72;2.67;;;;;;;15.66;83.44;100201.28;10329965;28;20053;-59
2021/08/18 03:53:49;;;;;;;3.63;2.72;;;;;;;15.65;84.06;100198.75;10327720;28;20149;-59
2021/08/18 03:58:51;;;;;;;3.28;2.40;;;;;;;15.63;84.12;100198.09;10324710;28;20140;-59
2021/08/18 04:03:52;;;;;;;3.72;2.72;;;;;;;15.76;83.57;100206.53;10330821;28;20189;-59
2021/08/18 04:08:56;;;;;;;4.70;2.40;;;;;;;15.84;83.49;100201.25;10324853;28;20082;-61
2021/08/18 04:13:57;;;;;;;5.63;3.40;;;;;;;15.79;83.79;100206.25;10334958;28;20152;-59
2021/08/18 04:18:59;;;;;;;5.25;2.67;;;;;;;15.78;83.89;100217.16;10334546;28;20078;-59
2021/08/18 04:24:00;;;;;;;4.85;3.00;;;;;;;15.93;83.74;100212.91;10330558;28;20069;-58
2021/08/18 04:29:02;;;;;;;4.22;3.60;;;;;;;15.72;83.69;100195.28;10335843;28;20049;-59
2021/08/18 04:34:04;;;;;;;4.13;3.20;;;;;;;15.81;83.74;100198.91;10334378;28;20104;-57
2021/08/18 04:39:05;;;;;;;4.40;2.40;;;;;;;15.93;83.78;100212.03;10333117;28;20050;-59
2021/08/18 04:44:07;;;;;;;5.35;3.35;;;;;;;15.95;84.54;100199.31;10335907;28;20058;-59
2021/08/18 04:49:08;;;;;;;3.47;2.60;;;;;;;15.88;84.18;100199.94;10326842;28;20053;-59
2021/08/18 04:54:10;;;;;;;2.72;2.35;;;;;;;16.01;84.16;100201.34;10332011;28;20050;-60
2021/08/18 04:59:11;;;;;;;3.67;2.30;;;;;;;15.97;83.35;100197.28;10316854;28;20132;-59
2021/08/18 05:04:13;;;;;;;3.47;2.75;;;;;;;15.87;83.87;100200.94;10334750;28;20094;-59
2021/08/18 05:09:15;;;;;;;3.40;2.90;;;;;;;15.96;84.42;100207.19;10338841;28;20054;-57
2021/08/18 05:14:16;;;;;;;3.03;2.58;;;;;;;16.11;83.04;100209.28;10340042;28;20038;-59
2021/08/18 05:19:18;;;;;;;2.67;2.38;;;;;;;16.09;83.15;100201.38;10341236;28;20141;-60
2021/08/18 05:24:20;;;;;;;4.05;2.67;;;;;;;16.11;83.32;100203.91;10338308;28;20068;-58
2021/08/18 05:29:21;;;;;;;3.03;2.65;;;;;;;16.15;82.72;100200.72;10341413;28;20142;-58
2021/08/18 05:34:23;;;;;;;3.88;2.28;;;;;;;16.21;82.88;100201.94;10336996;28;20050;-60
2021/08/18 05:39:24;;;;;;;3.83;2.50;;;;;;;16.29;82.73;100201.13;10339045;28;20057;-63
2021/08/18 05:44:26;;;;;;;4.57;2.53;;;;;;;16.47;81.58;100211.75;10337131;28;20064;-59
2021/08/18 05:49:27;;;;;;;3.22;1.83;;;;;;;16.43;81.27;100208.56;10337553;28;20153;-59
2021/08/18 05:54:29;;;;;;;2.97;1.90;;;;;;;16.48;80.87;100216.16;10341705;28;20050;-58
2021/08/18 05:59:30;;;;;;;2.08;1.48;;;;;;;16.38;80.36;100203.69;10336729;28;20050;-60
2021/08/18 06:04:32;;;;;;;3.13;1.70;;;;;;;16.44;80.76;100218.31;10335061;28;20052;-58
2021/08/18 06:09:34;;;;;;;3.75;2.08;;;;;;;16.51;80.94;100219.34;10332245;28;20050;-59
2021/08/18 06:14:35;;;;;;;2.50;1.60;;;;;;;16.58;80.52;100223.06;10314239;28;20096;-60
2021/08/18 06:19:37;;;;;;;2.50;1.55;;;;;;;16.60;80.08;100213.00;10311991;28;20045;-58
2021/08/18 06:29:40;;;;;;;3.00;1.90;;;;;;;16.75;79.21;100228.47;10311303;28;20140;-60
2021/08/18 06:34:42;;;;;;;2.35;1.35;;;;;;;16.76;78.74;100214.88;10306135;28;20065;-59
2021/08/18 06:39:43;;;;;;;1.73;1.20;;;;;;;16.82;78.90;100224.13;10303232;28;20050;-61
2021/08/18 06:44:48;;;;;;;1.83;1.08;;;;;;;16.94;78.54;100225.53;10306421;28;20055;-59
2021/08/18 06:49:50;;;;;;;;;;;;;;;16.94;78.89;100238.97;10308163;28;20564;-61
2021/08/18 06:54:51;;;;;;;3.08;1.08;;;;;;;16.92;78.24;100238.28;10306428;28;19934;-59
2021/08/18 06:59:53;;;;;;;1.27;0.90;;;;;;;16.87;78.38;100232.56;10302814;28;20177;-59
2021/08/18 07:04:54;;;;;;;3.53;1.60;;;;;;;16.99;78.75;100234.94;10306388;28;20496;-59
2021/08/18 07:09:56;;;;;;;2.47;1.38;;;;;;;17.05;78.78;100234.28;10305969;28;20054;-59
2021/08/18 07:14:57;;;;;;;0.95;0.70;;;;;;;17.31;77.08;100234.97;10311237;28;20050;-61
2021/08/18 07:19:59;;;;;;;1.92;0.93;;;;;;;17.34;75.92;100236.50;10316099;28;20038;-61
2021/08/18 07:25:01;;;;;;;1.23;0.55;;;;;;;17.29;76.31;100245.06;10316558;28;20058;-59
2021/08/18 07:30:03;;;;;;;2.35;0.80;;;;;;;17.36;76.05;100249.78;10315445;28;20077;-62
2021/08/18 07:35:05;;;;;;;1.90;0.90;;;;;;;17.30;76.45;100249.41;10312785;28;20132;-62
2021/08/18 07:40:07;;;;;;;1.98;0.80;;;;;;;17.28;76.46;100243.38;10311649;28;20121;-59
2021/08/18 07:45:10;;;;;;;2.03;1.05;;;;;;;17.28;76.68;100242.56;10311295;28;20050;-60
2021/08/18 07:50:12;;;;;;;3.22;0.75;;;;;;;17.33;76.67;100247.44;10314607;28;20057;-61
2021/08/18 07:55:13;;;;;;;1.70;0.90;;;;;;;17.42;77.17;100243.72;10320363;28;20141;-60
2021/08/18 08:00:16;;;;;;;1.15;0.82;;;;;;;17.38;77.12;100245.88;10320081;28;20058;-61
2021/08/18 08:05:18;;;;;;;2.58;1.05;;;;;;;17.45;77.30;100251.47;10318404;28;21538;-59
2021/08/18 08:10:19;;;;;;;1.52;1.20;;;;;;;17.50;77.49;100254.47;10320848;28;20058;-59
2021/08/18 08:15:21;;;;;;;2.67;1.00;;;;;;;17.40;77.81;100260.03;10321011;28;20152;-59
2021/08/18 08:20:23;;;;;;;1.25;0.90;;;;;;;17.45;78.05;100263.06;10310869;28;20056;-60
2021/08/18 08:25:24;;;;;;;1.88;1.33;;;;;;;17.40;78.51;100259.16;10320598;28;20050;-60
2021/08/18 08:30:26;;;;;;;2.65;1.10;;;;;;;17.46;78.28;100261.22;10338425;28;20065;-61
2021/08/18 08:35:27;;;;;;;1.23;1.02;;;;;;;17.54;78.03;100255.00;10320386;28;20078;-60
2021/08/18 08:40:29;;;;;;;1.77;0.90;;;;;;;17.76;77.12;100266.88;10321655;28;20139;-58
2021/08/18 08:45:30;;;;;;;2.45;1.13;;;;;;;17.85;76.97;100268.59;10314731;28;20215;-61
2021/08/18 08:50:32;;;;;;;1.33;1.10;;;;;;;17.89;76.75;100271.78;10320203;28;20065;-60
2021/08/18 08:55:34;;;;;;;1.00;0.80;;;;;;;17.89;76.13;100269.94;10318288;28;20053;-60
2021/08/18 09:00:35;;;;;;;1.25;0.73;;;;;;;17.93;75.78;100268.59;10317770;28;20112;-60
2021/08/18 09:05:38;;;;;;;1.83;1.35;;;;;;;18.02;75.76;100267.56;10310891;28;20062;-59
2021/08/18 09:10:40;;;;;;;1.98;1.00;;;;;;;18.05;76.26;100268.25;10307672;28;20066;-59
2021/08/18 09:16:01;;;;;;;2.28;1.30;;;;;;;18.08;76.99;100263.34;10313500;28;20188;-59
2021/08/18 09:21:25;;;;;;;1.83;0.85;;;;;;;18.13;76.23;100266.34;10308729;28;20562;-60
2021/08/18 09:26:26;;;;;;;1.63;0.80;;;;;;;18.11;77.61;100256.78;10316802;28;20107;-59
2021/08/18 09:31:28;;;;;;;2.55;0.98;;;;;;;18.04;79.53;100261.16;10311750;28;20440;-59
2021/08/18 09:36:32;;;;;;;1.63;1.15;;;;;;;18.25;79.80;100256.03;10328804;28;20481;-61
2021/08/18 09:41:33;;;;;;;;;;;;;;;18.96;77.27;100261.47;10311266;28;20128;-60
2021/08/18 09:46:36;;;;;;;1.35;1.08;;;;;;;19.02;76.38;100260.78;10314399;28;20008;-60
2021/08/18 09:51:39;;;;;;;1.55;1.20;;;;;;;19.45;74.59;100254.88;10313199;28;20042;-61
2021/08/18 09:56:43;;;;;;;1.60;1.08;;;;;;;19.36;73.01;100248.69;10319492;28;20053;-61
2021/08/18 10:01:45;;;;;;;1.35;0.80;;;;;;;19.26;74.28;100253.53;10316035;28;20116;-61
2021/08/18 10:06:47;;;;;;;3.95;1.38;;;;;;;19.28;73.41;100251.47;10307588;28;20060;-60
2021/08/18 10:11:48;;;;;;;1.50;0.95;;;;;;;19.34;73.75;100253.44;10311428;28;20418;-60
2021/08/18 10:16:50;;;;;;;1.90;1.33;;;;;;;19.43;73.64;100257.75;10313804;28;20057;-58
2021/08/18 10:21:58;;;;;;;2.22;0.93;;;;;;;19.32;72.54;100249.25;10321116;28;20050;-59
2021/08/18 10:27:00;;;;;;;0.80;0.70;;;;;;;19.26;72.53;100248.13;10313649;28;20406;-61
2021/08/18 10:32:03;;;;;;;2.50;1.25;;;;;;;19.03;73.84;100243.53;10315628;28;20071;-59
2021/08/18 10:37:05;;;;;;;2.75;1.45;;;;;;;19.22;74.43;100241.41;10314538;28;20045;-59
2021/08/18 10:42:11;;;;;;;1.37;0.97;;;;;;;19.58;72.77;100244.31;10317117;28;20053;-62
2021/08/18 10:47:32;;;;;;;1.45;0.80;;;;;;;19.77;71.36;100237.59;10312230;28;20057;-58
2021/08/18 10:52:36;;;;;;;1.60;1.00;;;;;;;19.68;71.47;100249.47;10318563;28;20076;-61
2021/08/18 10:57:40;;;;;;;2.28;0.80;;;;;;;19.43;72.38;100238.84;10317218;28;20058;-62
2021/08/18 11:02:48;;;;;;;;;;;;;;;19.48;73.52;100253.69;10315052;28;20054;-60
2021/08/18 11:08:09;;;;;;;1.23;0.80;;;;;;;20.01;73.33;100243.75;10306239;28;19921;-61
2021/08/18 11:13:12;;;;;;;1.33;1.23;;;;;;;20.73;70.39;100241.38;10309599;28;20046;-60
2021/08/18 11:18:17;;;;;;;2.67;0.40;;;;;;;21.60;66.39;100237.66;10313419;28;20068;-61
2021/08/18 11:23:24;;;;;;;0.95;0.85;;;;;;;22.24;64.07;100228.47;10308389;28;20113;-61
2021/08/18 11:28:28;;;;;;;0.60;0.60;;;;;;;22.58;62.29;100226.78;10320644;28;20058;-59
2021/08/18 11:33:30;;;;;;;;;;;;;;;22.72;56.95;100224.13;10324163;28;20041;-59
2021/08/18 11:38:31;;;;;;;2.08;0.50;;;;;;;23.35;59.25;100218.41;10323192;28;20024;-59
2021/08/18 11:43:37;;;;;;;0.70;0.50;;;;;;;23.79;56.47;100218.81;10326522;28;20041;-58
2021/08/18 11:48:40;;;;;;;1.77;0.60;;;;;;;23.03;57.10;100214.59;10321947;28;20139;-61
2021/08/18 11:53:51;;;;;;;1.65;1.00;;;;;;;22.13;57.58;100207.38;10324709;28;20042;-60
2021/08/18 11:59:02;;;;;;;1.10;0.57;;;;;;;21.97;58.01;100205.00;10326807;28;20100;-59
2021/08/18 12:04:04;;;;;;;1.55;0.68;;;;;;;21.96;58.79;100203.31;10323899;28;20089;-59
2021/08/18 12:09:21;;;;;;;0.60;0.55;;;;;;;22.15;56.05;100202.59;10339600;28;20120;-58
2021/08/18 12:14:27;;;;;;;2.45;0.60;;;;;;;22.26;54.92;100193.03;10320432;28;20054;-60
2021/08/18 12:19:28;;;;;;;1.92;0.93;;;;;;;22.11;56.04;100181.50;10323028;28;20050;-59
2021/08/18 12:24:30;;;;;;;2.97;0.88;;;;;;;22.03;56.69;100190.66;10323891;28;20062;-60
2021/08/18 12:29:34;;;;;;;2.15;0.68;;;;;;;22.21;56.55;100179.25;10326884;28;20049;-61
2021/08/18 12:34:59;;;;;;;2.40;2.20;;;;;;;22.41;55.28;100176.66;10326829;28;20451;-60
2021/08/18 12:40:08;;;;;;;1.90;1.52;;;;;;;22.92;54.58;100183.47;10318370;28;20112;-59
2021/08/18 12:45:14;;;;;;;1.23;0.80;;;;;;;23.36;52.91;100178.50;10316384;28;20081;-61
2021/08/18 12:50:36;;;;;;;3.58;1.30;;;;;;;23.88;51.32;100173.25;10311780;28;20045;-62
2021/08/18 12:55:41;;;;;;;2.65;0.80;;;;;;;23.57;51.10;100175.59;10335577;28;20049;-62
2021/08/18 13:00:42;;;;;;;1.45;1.25;;;;;;;23.15;52.46;100164.13;10316020;28;20049;-61
2021/08/18 13:05:44;;;;;;;1.75;1.27;;;;;;;22.81;53.00;100162.38;10314390;28;20046;-61
2021/08/18 13:10:46;;;;;;;2.85;1.45;;;;;;;22.68;52.79;100141.47;10314496;28;20050;-59
2021/08/18 13:15:47;;;;;;;1.92;1.23;;;;;;;22.31;53.56;100154.47;10313530;28;20066;-61
2021/08/18 13:20:49;;;;;;;1.70;1.33;;;;;;;21.98;54.85;100144.31;10312259;28;20061;-59
2021/08/18 13:25:51;;;;;;;2.15;1.23;;;;;;;22.07;55.39;100152.09;10316739;28;20052;-61
2021/08/18 13:30:52;;;;;;;1.45;1.08;;;;;;;22.03;54.85;100145.41;10313499;28;20062;-61
2021/08/18 13:35:54;;;;;;;1.23;1.13;;;;;;;22.50;54.29;100151.03;10314497;28;20135;-61
2021/08/18 13:40:56;;;;;;;2.92;1.98;;;;;;;22.84;51.96;100138.38;10311404;28;20120;-62
2021/08/18 13:45:57;;;;;;;1.33;1.00;;;;;;;22.88;52.93;100136.91;10318121;28;20041;-62
2021/08/18 13:50:59;;;;;;;1.65;1.00;;;;;;;22.82;53.09;100131.47;10326026;28;20488;-59
2021/08/18 13:56:02;;;;;;;3.33;1.85;;;;;;;22.71;53.98;100132.91;10311495;28;20057;-62
2021/08/18 14:01:03;;;;;;;1.17;1.00;;;;;;;22.60;53.23;100132.47;10312818;28;20065;-61
2021/08/18 14:06:07;;;;;;;2.30;2.10;;;;;;;22.47;53.15;100132.44;10329156;28;20042;-60
2021/08/18 14:11:09;;;;;;;;;;;;;;;22.20;53.74;100126.94;10308963;28;20133;-61
2021/08/18 14:16:11;;;;;;;1.73;1.35;;;;;;;21.95;53.72;100115.78;10317131;28;19939;-62
2021/08/18 14:21:13;;;;;;;1.45;1.00;;;;;;;21.80;53.06;100121.34;10315976;28;20053;-62
2021/08/18 14:26:14;;;;;;;1.70;1.48;;;;;;;21.76;53.30;100128.19;10314440;28;20108;-61
2021/08/18 14:31:16;;;;;;;1.67;1.10;;;;;;;21.86;52.55;100122.41;10310999;28;20053;-60
2021/08/18 14:36:20;;;;;;;1.17;0.65;;;;;;;21.98;51.81;100114.50;10319361;28;20062;-60
2021/08/18 14:41:22;;;;;;;2.42;0.80;;;;;;;21.91;52.74;100119.91;10317112;28;20065;-61
2021/08/18 14:46:25;;;;;;;2.50;2.30;;;;;;;21.87;52.48;100122.22;10311773;28;20050;-61
2021/08/18 14:51:26;;;;;;;1.83;0.63;;;;;;;21.85;52.46;100123.44;10314348;28;20105;-62
2021/08/18 14:56:28;;;;;;;1.08;0.80;;;;;;;22.14;52.79;100125.00;10320558;28;20566;-61
2021/08/18 15:01:30;;;;;;;1.65;0.90;;;;;;;22.22;52.03;100124.84;10314229;28;20065;-60
2021/08/18 15:06:32;;;;;;;2.08;1.88;;;;;;;22.27;51.76;100123.41;10314645;28;20144;-60
2021/08/18 15:11:34;;;;;;;1.10;0.82;;;;;;;22.11;51.32;100105.63;10314415;28;20066;-62
2021/08/18 15:16:36;;;;;;;0.80;0.37;;;;;;;22.07;52.24;100111.44;10316340;28;20546;-62
2021/08/18 15:21:37;;;;;;;1.88;0.80;;;;;;;22.14;52.47;100099.78;10312811;28;20199;-62
2021/08/18 15:26:39;;;;;;;3.58;0.52;;;;;;;22.14;52.19;100095.19;10315537;28;20077;-62
2021/08/18 15:31:41;;;;;;;2.72;1.00;;;;;;;22.22;52.34;100096.91;10316522;28;20063;-60
2021/08/18 15:36:43;;;;;;;3.10;1.92;;;;;;;22.16;52.88;100095.00;10319172;28;20057;-61
2021/08/18 15:41:45;;;;;;;2.58;2.38;;;;;;;21.94;52.21;100091.59;10328434;28;20053;-60
2021/08/18 15:46:47;;;;;;;0.90;0.60;;;;;;;21.83;52.97;100091.13;10312587;28;20050;-60
2021/08/18 15:51:48;;;;;;;0.90;0.77;;;;;;;21.65;53.47;100088.13;10310786;28;20057;-60
2021/08/18 15:56:50;;;;;;;0.55;0.40;;;;;;;21.52;54.02;100089.69;10320483;28;20124;-61
2021/08/18 16:01:51;;;;;;;1.95;0.65;;;;;;;21.51;54.42;100087.19;10316641;28;20133;-61
2021/08/18 16:06:53;;;;;;;0.95;0.60;;;;;;;21.38;54.29;100077.09;10328125;28;20058;-62
2021/08/18 16:12:10;;;;;;;1.63;1.02;;;;;;;21.47;54.70;100070.50;10304747;28;20096;-60
2021/08/18 16:17:12;;;;;;;1.30;0.95;;;;;;;21.48;54.75;100066.75;10313297;28;20054;-60
2021/08/18 16:22:22;;;;;;;0.90;0.40;;;;;;;21.28;55.01;100049.56;10315612;28;20065;-61
2021/08/18 16:27:24;;;;;;;0.82;0.63;;;;;;;21.31;55.77;100065.38;10306623;28;20038;-62
2021/08/18 16:32:27;;;;;;;0.82;0.50;;;;;;;21.21;55.71;100068.44;10310148;28;20165;-60
2021/08/18 16:37:29;;;;;;;;;;;;;;;21.08;56.17;100060.25;10314286;28;20495;-63
2021/08/18 16:42:30;;;;;;;0.82;0.50;;;;;;;21.09;56.09;100059.19;10317573;28;19965;-62
2021/08/18 16:47:33;;;;;;;0.82;0.60;;;;;;;20.96;55.24;100057.25;10320894;28;20061;-61
2021/08/18 16:52:35;;;;;;;0.85;0.52;;;;;;;20.91;55.78;100059.69;10315406;28;20070;-60
2021/08/18 16:57:41;;;;;;;1.88;0.57;;;;;;;20.79;55.90;100060.22;10319614;28;20061;-59
2021/08/18 17:02:43;;;;;;;0.70;0.45;;;;;;;20.80;56.00;100064.59;10316262;28;20567;-60
2021/08/18 17:07:45;;;;;;;0.82;0.68;;;;;;;20.74;56.45;100051.84;10316645;28;20073;-61
2021/08/18 17:12:47;;;;;;;1.63;0.55;;;;;;;20.75;56.64;100050.84;10316402;28;20049;-60
2021/08/18 17:17:49;;;;;;;0.82;0.40;;;;;;;20.71;56.61;100044.13;10311932;28;20096;-61
2021/08/18 17:22:56;;;;;;;0.82;0.50;;;;;;;20.83;56.61;100066.91;10314371;28;20050;-61
2021/08/18 17:27:58;;;;;;;0.65;0.50;;;;;;;20.72;56.27;100055.81;10312962;28;20054;-62
2021/08/18 17:33:00;;;;;;;1.67;1.15;;;;;;;20.63;56.20;100057.78;10314648;28;20061;-62
2021/08/18 17:38:01;;;;;;;1.75;1.65;;;;;;;20.55;55.96;100057.88;10312542;28;20479;-60
2021/08/18 17:43:03;;;;;;;1.80;0.60;;;;;;;20.42;56.21;100062.16;10314596;28;20049;-62
2021/08/18 17:48:05;;;;;;;0.95;0.95;;;;;;;20.45;56.60;100075.28;10311542;28;20323;-59
2021/08/18 17:53:07;;;;;;;0.60;0.43;;;;;;;20.45;56.25;100064.47;10311726;28;20529;-60
2021/08/18 17:58:09;;;;;;;1.33;1.23;;;;;;;20.37;56.52;100064.59;10310590;28;20459;-59
2021/08/18 18:03:10;;;;;;;1.05;0.90;;;;;;;20.37;56.89;100064.59;10313960;28;20073;-61
2021/08/18 18:08:12;;;;;;;2.83;1.88;;;;;;;20.36;57.24;100071.03;10312456;28;20057;-58
2021/08/18 18:13:14;;;;;;;2.05;0.70;;;;;;;20.35;57.36;100061.22;10307250;28;20131;-61
2021/08/18 18:18:15;;;;;;;0.80;0.50;;;;;;;20.27;57.79;100069.47;10311122;28;20061;-56
2021/08/18 18:23:18;;;;;;;2.05;1.00;;;;;;;20.31;58.33;100066.19;10309894;28;20358;-58
2021/08/18 18:28:19;;;;;;;2.13;0.90;;;;;;;20.36;58.26;100068.31;10312438;28;20054;-57
2021/08/18 18:33:22;;;;;;;2.50;2.03;;;;;;;20.36;58.55;100071.03;10310634;28;20072;-55
2021/08/18 18:38:24;;;;;;;2.20;1.50;;;;;;;20.36;58.51;100059.38;10307471;28;20058;-56
2021/08/18 18:43:26;;;;;;;1.23;0.85;;;;;;;20.42;59.14;100072.97;10325538;28;20432;-57
2021/08/18 18:48:27;;;;;;;1.90;1.40;;;;;;;20.46;58.86;100068.84;10309519;28;20127;-56
2021/08/18 18:53:29;;;;;;;5.20;1.88;;;;;;;20.45;59.51;100072.56;10311166;28;20196;-57
2021/08/18 18:58:31;;;;;;;3.20;1.52;;;;;;;20.44;59.09;100073.59;10305769;28;20050;-57
2021/08/18 19:03:34;;;;;;;2.33;1.42;;;;;;;20.45;59.33;100082.56;10307049;28;20065;-57
2021/08/18 19:08:36;;;;;;;;;;;;;;;20.33;58.74;100089.47;10310933;28;20153;-57
2021/08/18 19:13:38;;;;;;;1.10;0.70;;;;;;;20.22;58.80;100083.56;10310054;28;20020;-56
2021/08/18 19:18:39;;;;;;;0.82;0.57;;;;;;;20.26;59.07;100079.44;10323512;28;20143;-57
2021/08/18 19:23:41;;;;;;;1.48;0.70;;;;;;;20.40;58.74;100079.56;10307652;28;20132;-58
2021/08/18 19:28:42;;;;;;;1.20;0.95;;;;;;;20.29;58.21;100083.63;10305510;28;20147;-58
2021/08/18 19:33:44;;;;;;;1.27;0.50;;;;;;;20.20;58.43;100082.91;10302314;28;20317;-56
2021/08/18 19:38:45;;;;;;;1.35;0.70;;;;;;;20.14;59.04;100079.09;10309167;28;20204;-57
2021/08/18 19:43:47;;;;;;;1.85;0.85;;;;;;;20.18;59.33;100081.44;10308541;28;20564;-56
2021/08/18 19:48:48;;;;;;;1.73;1.27;;;;;;;20.23;58.86;100079.00;10311431;28;20041;-56
2021/08/18 19:53:49;;;;;;;2.17;1.40;;;;;;;20.25;59.67;100083.19;10311986;28;20586;-55
2021/08/18 19:58:51;;;;;;;4.57;1.83;;;;;;;20.29;59.59;100075.53;10308368;28;20247;-56
2021/08/18 20:03:53;;;;;;;1.77;1.50;;;;;;;20.24;59.33;100065.28;10319298;28;20132;-56
2021/08/18 20:08:54;;;;;;;1.65;1.50;;;;;;;20.26;59.52;100078.59;10316997;28;21458;-55
2021/08/18 20:13:56;;;;;;;1.92;1.10;;;;;;;20.34;59.67;100078.47;10308469;28;20049;-59
2021/08/18 20:18:57;;;;;;;1.55;0.90;;;;;;;20.23;59.61;100074.41;10304536;28;20116;-57
2021/08/18 20:23:59;;;;;;;1.63;0.60;;;;;;;20.22;59.79;100071.91;10335640;28;20283;-57
2021/08/18 20:29:00;;;;;;;1.15;1.05;;;;;;;20.21;59.91;100078.34;10311853;28;20161;-56
2021/08/18 20:34:02;;;;;;;1.45;1.35;;;;;;;20.12;60.00;100064.94;10318488;28;20054;-57
2021/08/18 20:39:05;;;;;;;1.40;0.80;;;;;;;20.13;60.26;100074.75;10312973;28;20135;-55
2021/08/18 20:44:08;;;;;;;2.57;0.90;;;;;;;20.07;60.72;100078.19;10312532;28;20096;-56
2021/08/18 20:49:12;;;;;;;2.28;1.05;;;;;;;20.04;60.85;100073.19;10312841;28;20508;-57
2021/08/18 20:54:13;;;;;;;1.92;1.70;;;;;;;19.96;60.82;100073.28;10310413;28;20058;-60
2021/08/18 20:59:15;;;;;;;0.93;0.82;;;;;;;19.89;61.17;100077.75;10311395;28;20057;-62
2021/08/18 21:04:16;;;;;;;2.45;1.08;;;;;;;19.86;61.60;100083.53;10329510;28;20133;-60
2021/08/18 21:09:19;;;;;;;3.22;0.60;;;;;;;19.80;61.63;100081.59;10330826;28;20144;-62
2021/08/18 21:14:20;;;;;;;1.42;1.33;;;;;;;19.75;61.81;100088.34;10329414;28;20129;-61
2021/08/18 21:19:22;;;;;;;1.63;1.33;;;;;;;19.69;62.10;100075.59;10330442;28;20128;-60
2021/08/18 21:24:23;;;;;;;1.88;1.27;;;;;;;19.69;62.39;100078.31;10332018;28;20683;-61
2021/08/18 21:29:24;;;;;;;1.65;0.82;;;;;;;19.74;62.08;100083.13;10328548;28;20107;-60
2021/08/18 21:34:26;;;;;;;1.85;0.95;;;;;;;19.68;62.37;100075.78;10331972;28;20077;-59
2021/08/18 21:39:28;;;;;;;4.55;4.35;;;;;;;19.56;62.66;100070.88;10342894;28;20046;-60
2021/08/18 21:44:29;;;;;;;2.75;2.35;;;;;;;19.58;62.88;100076.09;10332331;28;20046;-61
2021/08/18 21:49:31;;;;;;;2.08;1.63;;;;;;;19.54;63.37;100072.06;10334779;28;20403;-61
2021/08/18 21:54:33;;;;;;;1.52;1.13;;;;;;;19.52;63.16;100071.44;10334570;28;20088;-60
2021/08/18 21:59:35;;;;;;;2.08;1.73;;;;;;;19.45;63.45;100071.31;10337470;28;20116;-61
2021/08/18 22:04:36;;;;;;;2.20;1.45;;;;;;;19.36;63.93;100073.28;10346733;28;20124;-61
2021/08/18 22:09:37;;;;;;;1.73;1.52;;;;;;;19.36;64.11;100067.88;10334570;28;20081;-59
2021/08/18 22:14:39;;;;;;;2.90;1.42;;;;;;;19.32;64.15;100065.75;10328720;28;20658;-60
2021/08/18 22:19:40;;;;;;;1.60;1.13;;;;;;;19.27;64.53;100068.16;10331785;28;20062;-58
2021/08/18 22:24:42;;;;;;;2.00;1.42;;;;;;;19.33;64.53;100073.66;10337739;28;20070;-61
2021/08/18 22:29:44;;;;;;;1.27;1.05;;;;;;;19.32;64.62;100074.69;10330569;28;20054;-62
2021/08/18 22:34:45;;;;;;;1.45;1.10;;;;;;;19.23;64.86;100073.06;10344235;28;20065;-59
2021/08/18 22:39:46;;;;;;;2.75;1.08;;;;;;;19.25;64.88;100076.44;10334406;28;20050;-61
2021/08/18 22:44:48;;;;;;;1.85;1.00;;;;;;;19.23;65.15;100079.34;10328437;28;20089;-58
2021/08/18 22:49:49;;;;;;;1.83;1.55;;;;;;;19.21;65.32;100080.53;10328841;28;20538;-61
2021/08/18 22:54:51;;;;;;;2.10;1.90;;;;;;;19.23;64.94;100076.63;10330403;28;20431;-59
2021/08/18 22:59:53;;;;;;;3.38;3.17;;;;;;;19.21;65.24;100077.84;10331079;28;20106;-60
2021/08/18 23:04:56;;;;;;;2.75;2.17;;;;;;;19.21;65.55;100080.53;10333953;28;20073;-60
2021/08/18 23:09:57;;;;;;;2.28;1.13;;;;;;;19.18;65.97;100075.50;10339372;28;20049;-59
2021/08/18 23:14:59;;;;;;;2.22;2.00;;;;;;;19.16;65.92;100078.38;10332658;28;20092;-59